Nearby METAR Reports

 

KALB - Albany, New York, USA
Distance from station: E 47mi, 75km
Updated: Mon, 27-May-2019 7:51am EDT
Few Clouds
Few Clouds
 Wind from N
Wind: N 8 mph , 13 km/h
Temperature: 63°F , 17°C
Dew Point: 48°F , 9°C
Humidity: 59%
Barometer: 30.00 inHg , 1015.9 hPa
Clouds: Few Clouds
Visibility: 10 miles , 16 km
Cloud details: Few Clouds 25000 ft
2019/05/27 11:51 KALB 271151Z 01007KT 10SM FEW250 17/09 A3000 RMK AO2 SLP157 T01720089 10172 20128 53019
KSLK - Saranac Lake, New York, USA
Distance from station: N 110mi, 177km
Updated: Mon, 27-May-2019 7:51am EDT
Clear
Clear
 Wind from E
Wind: E 6 mph , 9 km/h
Temperature: 52°F , 11°C
Dew Point: 43°F , 6°C
Humidity: 72%
Barometer: 30.00 inHg , 1015.9 hPa
Clouds: Clear
Visibility: 10 miles , 16 km
2019/05/27 11:51 KSLK 271151Z AUTO 08005KT 10SM CLR 11/06 A3000 RMK AO2 SLP159 T01110061 10117 20011 51014
 
KSYR - Syracuse, New York, USA
Distance from station: W 73mi, 117km
Updated: Mon, 27-May-2019 7:54am EDT
Few Clouds
Few Clouds
 Wind from W
Wind: W 3 mph , 6 km/h
Temperature: 61°F , 16°C
Dew Point: 52°F , 11°C
Humidity: 72%
Barometer: 30.02 inHg , 1016.6 hPa
Clouds: Few Clouds
Visibility: 10 miles , 16 km
Cloud details: Few Clouds 5000 ft
Few Clouds 18000 ft
2019/05/27 11:54 KSYR 271154Z 27003KT 10SM FEW050 FEW180 16/11 A3002 RMK AO2 SLP162 T01560111 10156 20100 52017
KBGM - Binghamton, New York, USA
Distance from station: SW 78mi, 126km
Updated: Mon, 27-May-2019 7:53am EDT
Clear
Clear
 Wind from calm
Wind: Calm
Temperature: 57°F , 14°C
Dew Point: 48°F , 9°C
Humidity: 72%
Barometer: 30.02 inHg , 1016.6 hPa
Clouds: Clear
Visibility: 10 miles , 16 km
2019/05/27 11:53 KBGM 271153Z 00000KT 10SM CLR 14/09 A3002 RMK AO2 SLP163 70004 T01390094 10139 20100 51020
 
KRME - Rome, New York, USA
Distance from station: WNW 43mi, 69km
Updated: Mon, 27-May-2019 7:53am EDT
Clear
Clear
 Wind from calm
Wind: Calm
Temperature: 55°F , 13°C
Dew Point: 48°F , 9°C
Humidity: 77%
Barometer: 30.03 inHg , 1016.9 hPa
Clouds: Clear
Visibility: 10 miles , 16 km
2019/05/27 11:53 KRME 271153Z 00000KT 10SM CLR 13/09 A3003 RMK AO2 SLP166 T01330089 10133 20078 53015 $
KJFK - New York, New York, USA
Distance from station: SSE 159mi, 256km
Updated: Mon, 27-May-2019 7:51am EDT
Partly cloudy
Partly cloudy
 Wind from N
Wind: N 13 mph , 20 km/h
Temperature: 70°F , 21°C
Dew Point: 55°F , 13°C
Humidity: 60%
Barometer: 29.94 inHg , 1013.9 hPa
Clouds: Partly cloudy
Visibility: 10 miles , 16 km
Cloud details: Partly cloudy 25000 ft
2019/05/27 11:51 KJFK 271151Z 01011KT 10SM SCT250 21/13 A2994 RMK AO2 SLP138 70012 T02060133 10217 20183 53017
 
KROC - Rochester, New York, USA
Distance from station: W 150mi, 242km
Updated: Mon, 27-May-2019 7:54am EDT
Partly cloudy
Partly cloudy
 Wind from WNW
Wind: WNW 6 mph , 9 km/h
Temperature: 59°F , 15°C
Dew Point: 48°F , 9°C
Humidity: 68%
Barometer: 30.05 inHg , 1017.6 hPa
Clouds: Partly cloudy
Visibility: 10 miles , 16 km
Cloud details: Partly cloudy 7000 ft
Partly cloudy 25000 ft
2019/05/27 11:54 KROC 271154Z 30005KT 10SM SCT070 SCT250 15/09 A3005 RMK AO2 SLP179 T01500094 10150 20100 53022
KART - Watertown, New York, USA
Distance from station: NNW 103mi, 166km
Updated: Mon, 27-May-2019 7:56am EDT
Clear
Clear
 Wind from calm
Wind: Calm
Temperature: 57°F , 14°C
Dew Point: 52°F , 11°C
Humidity: 82%
Barometer: 30.02 inHg , 1016.6 hPa
Clouds: Clear
Visibility: 10 miles , 16 km
2019/05/27 11:56 KART 271156Z AUTO 00000KT 10SM CLR 14/11 A3002 RMK AO2 SLP164 T01390111 10139 20061 51022
 
KELM - Elmira-Corning, New York, USA
Distance from station: SSW 121mi, 195km
Updated: Mon, 27-May-2019 7:53am EDT
Clear
Clear
 Wind from WSW
Wind: WSW 7 mph , 11 km/h
Temperature: 57°F , 14°C
Dew Point: 54°F , 12°C
Humidity: 88%
Barometer: 30.03 inHg , 1016.9 hPa
Clouds: Clear
Visibility: 10 miles , 16 km
2019/05/27 11:53 KELM 271153Z AUTO 24006KT 10SM CLR 14/12 A3003 RMK AO2 SLP168 T01390117 10139 20078 51020
KJHW - Jamestown, New York, USA
Distance from station: SW 238mi, 383km
Updated: Mon, 27-May-2019 7:56am EDT
Clear
Clear
 Wind from NE
Wind: NE 6 mph , 9 km/h
Temperature: 55°F , 13°C
Dew Point: 52°F , 11°C
Humidity: 88%
Barometer: 30.08 inHg , 1018.6 hPa
Clouds: Clear
Visibility: 10 miles , 16 km
2019/05/27 11:56 KJHW 271156Z AUTO 05005KT 10SM CLR 13/11 A3008 RMK AO2 SLP188 70001 T01280106 10133 20089 51015
 
KMSS - Massena, New York, USA
Distance from station: N 141mi, 232km
Updated: Mon, 27-May-2019 7:53am EDT
Clear
Clear
 Wind from ENE
Wind: ENE 6 mph , 9 km/h
Temperature: 57°F , 14°C
Dew Point: 46°F , 8°C
Humidity: 67%
Barometer: 30.02 inHg , 1016.6 hPa
Clouds: Clear
Visibility: 10 miles , 16 km
2019/05/27 11:53 KMSS 271153Z AUTO 07005KT 10SM CLR 14/08 A3002 RMK AO2 SLP166 T01440078 10144 20072 53014
KBUF - Buffalo, New York, USA
Distance from station: W 204mi, 328km
Updated: Mon, 27-May-2019 7:54am EDT
Clear
Clear
 Wind from calm
Wind: Calm
Temperature: 55°F , 13°C
Dew Point: 52°F , 11°C
Humidity: 88%
Barometer: 30.06 inHg , 1017.9 hPa
Clouds: Clear
Visibility: 10 miles , 16 km
2019/05/27 11:54 KBUF 271154Z 00000KT 10SM CLR 13/11 A3006 RMK AO2 SLP179 T01330106 10133 20100 51019